Weather at Miskolc Airport

Public forecast

Using degrees Celsius for public forecast. Weather courtesy of forecast.io.

Closest aviation weather report (METAR) to Miskolc Airport

Closest report is Košice Airport, 36.3 nm (67.3 km) NNE. Retrieved 2022/05/21 21:30 UTC (8 minutes ago):

LZKZ 212130Z 32007KT CAVOK 17/07 Q1014 NOSIG

Closest aviation forecast (TAF) to Miskolc Airport

Closest forecast is Košice Airport, 36.3 nm (67.3 km) NNE. Retrieved 2022/05/21 18:12 UTC (3 hours ago):

TAF LZKZ 211715Z 2118/2218 36014KT CAVOK BECMG 2200/2202 35006KT TEMPO 2209/2215 9999 SCT040